Flight Track Log - Related Links

Times and Time Zones

All times are in EDT time to prevent confusion due to time zone crossing. See the EJA677P flight status page for this flight to view local times or setup timezone preferences in your user account.

Time Position Orientation Groundspeed Altitude Reporting Facility
EDT Latitude Longitude Course Direction KTS MPH feet Rate Location/Type
Thu 07:51:46 PM 36.1078 -115.1550 287° West 190 219 3,600  Level Los Angeles Center
Thu 07:52:56 PM 36.1214 -115.2117 287° West 222 255 8,700 4,082 Climbing Los Angeles Center
Thu 07:53:48 PM 36.0653 -115.2383 201° Southwest 265 305 11,900 3,387 Climbing Los Angeles Center
Thu 07:55:00 PM 35.9769 -115.2508 187° South 282 325 15,700 2,776 Climbing Los Angeles Center
Thu 07:56:02 PM 35.8869 -115.2631 186° South 308 354 18,100 2,419 Climbing Los Angeles Center
Thu 07:57:04 PM 35.7867 -115.2783 187° South 345 397 20,700 2,323 Climbing Los Angeles Center
Thu 07:58:06 PM 35.6803 -115.2936 187° South 371 427 22,900 1,113 Climbing Los Angeles Center
Thu 07:59:08 PM 35.5361 -115.3000 182° South 425 489 23,000 48 Climbing Los Angeles Center
Thu 08:00:10 PM 35.4131 -115.3039 181° South 439 505 23,000  Level Los Angeles Center
Thu 08:01:12 PM 35.2897 -115.3089 182° South 441 507 23,000  Level Los Angeles Center
Thu 08:02:15 PM 35.1647 -115.3133 182° South 438 504 23,000  Level Los Angeles Center
Thu 08:03:17 PM 35.0431 -115.3189 182° South 437 503 23,000  Level Los Angeles Center
Thu 08:04:19 PM 34.9236 -115.3236 182° South 437 503 23,000  Level Los Angeles Center
Thu 08:05:21 PM 34.7778 -115.3314 183° South 437 503 23,000  Level Los Angeles Center
Thu 08:06:23 PM 34.6636 -115.3814 200° South 433 498 23,000  Level Los Angeles Center
Thu 08:07:25 PM 34.5503 -115.4308 200° South 431 496 23,000  Level Los Angeles Center
Thu 08:08:27 PM 34.4378 -115.4786 199° South 429 494 23,000  Level Los Angeles Center
Thu 08:09:29 PM 34.3311 -115.5264 200° South 430 495 23,000  Level Los Angeles Center
Thu 08:10:31 PM 34.1994 -115.5942 203° Southwest 427 491 23,000  Level Los Angeles Center
Thu 08:11:34 PM 34.0889 -115.6497 203° Southwest 430 495 23,000  Level Los Angeles Center
Thu 08:12:36 PM 33.9767 -115.7078 203° Southwest 438 504 23,000  Level Los Angeles Center
Thu 08:13:38 PM 33.8631 -115.7661 203° Southwest 442 509 23,000  Level Los Angeles Center
Thu 08:14:40 PM 33.7508 -115.8233 203° Southwest 439 505 23,000  Level Los Angeles Center
Thu 08:15:42 PM 33.6481 -115.8986 211° Southwest 432 497 23,000  Level Los Angeles Center
Thu 08:16:44 PM 33.5317 -115.9972 215° Southwest 427 491 23,000 -435 Level Los Angeles Center
Thu 08:17:46 PM 33.4350 -116.0800 216° Southwest 429 494 22,100 -1,548 Descending Los Angeles Center
Thu 08:18:48 PM 33.3397 -116.1611 215° Southwest 424 488 19,800 -2,129 Descending Los Angeles Center
Thu 08:19:50 PM 33.2500 -116.2375 215° Southwest 402 463 17,700 -1,968 Descending Los Angeles Center
Thu 08:20:53 PM 33.1622 -116.3117 215° Southwest 390 449 15,700 -2,064 Descending Los Angeles Center
Thu 08:21:55 PM 33.0619 -116.3964 215° Southwest 376 433 13,400 -1,790 Descending Los Angeles Center
Thu 08:22:57 PM 32.9847 -116.4564 213° Southwest 368 423 12,000 -1,355 Descending Los Angeles Center
Thu 08:23:59 PM 32.8989 -116.5050 205° Southwest 347 399 10,600 -1,065 Descending Los Angeles Center
Thu 08:25:01 PM 32.8275 -116.5678 216° Southwest 321 369 9,800 -581 Descending Los Angeles Center
Thu 08:26:03 PM 32.7744 -116.6769 240° Southwest 319 367 9,400 -1,016 Descending Los Angeles Center
Thu 08:27:05 PM 32.7325 -116.7650 240° Southwest 311 358 7,700 -1,597 Descending Los Angeles Center
Thu 08:28:07 PM 32.6986 -116.8433 243° Southwest 278 320 6,100 -1,370 Descending Los Angeles Center
Thu 08:29:12 PM 32.6667 -116.9333 247° West 227 261 4,800 -1,237 Descending Southern California TRACON
Thu 08:30:18 PM 32.6833 -117.0000 287° West 159 183 3,400 -992 Descending Southern California TRACON
Thu 08:31:19 PM 32.7000 -117.0333 301° West 124 143 2,700 -694 Descending Southern California TRACON
Thu 08:32:19 PM 32.7000 -117.0667 270° West 122 140 2,000 -700 Descending Southern California TRACON
Thu 08:33:19 PM 32.7167 -117.1167 292° West 128 147 1,300 -645 Descending Southern California TRACON
Thu 08:34:20 PM 32.7236 -117.1475 285° West 122 140 700 -488 Descending Los Angeles Center
Thu 08:35:22 PM 32.7322 -117.1856 285° West 116 133 300 -387 Descending Los Angeles Center
Thu 08:37:00 PM 32.7333 -117.1833 281° West  Level FlightAware Approximate

Login

Don't have an account? Register now (free) for customized features, flight alerts, and more!